Time;durP1;ratioP1;P1;durP2;ratioP2;P2;SDS_P1;SDS_P2;PMS_P1;PMS_P2;Temp;Humidity;BMP_temperature;BMP_pressure;BME280_temperature;BME280_humidity;BME280_pressure;Samples;Min_cycle;Max_cycle;Signal;HPM_P1;HPM_P2
2023/04/10 00:00:30;;;;;;;17.03;15.23;;;3.90;99.90;;;4.44;89.47;98550.03;5241835;28;20269;-62
2023/04/10 00:03:03;;;;;;;16.77;15.07;;;3.80;99.90;;;4.50;89.21;98544.63;5242035;28;20235;-63
2023/04/10 00:05:37;;;;;;;16.33;14.47;;;3.80;99.90;;;4.48;89.54;98549.53;5239232;28;20225;-60
2023/04/10 00:08:11;;;;;;;17.17;15.43;;;3.90;99.90;;;4.43;90.08;98555.81;5240733;28;20224;-62
2023/04/10 00:10:44;;;;;;;18.20;15.50;;;3.80;99.90;;;4.44;89.51;98550.03;5236048;28;20640;-63
2023/04/10 00:13:17;;;;;;;16.20;14.60;;;3.80;99.90;;;4.55;89.22;98555.16;5240734;28;20207;-63
2023/04/10 00:15:50;;;;;;;17.53;15.70;;;3.90;99.90;;;4.57;89.77;98556.19;5242291;28;20229;-59
2023/04/10 00:18:23;;;;;;;15.60;14.10;;;3.90;99.90;;;4.63;89.27;98551.69;5239243;28;20258;-62
2023/04/10 00:20:56;;;;;;;17.30;15.70;;;4.00;99.90;;;4.68;89.47;98547.94;5238067;28;20210;-62
2023/04/10 00:23:33;;;;;;;14.57;13.13;;;4.00;99.90;;;4.57;89.42;98551.13;5242156;28;20204;-62
2023/04/10 00:26:06;;;;;;;15.03;13.53;;;3.80;99.90;;;4.56;89.46;98549.38;5240924;28;20597;-63
2023/04/10 00:28:39;;;;;;;16.17;14.43;;;3.90;99.90;;;4.58;89.57;98542.78;5230730;28;20215;-62
2023/04/10 00:31:12;;;;;;;15.60;14.07;;;3.80;99.90;;;4.57;89.44;98543.53;5242982;28;20281;-62
2023/04/10 00:33:45;;;;;;;16.23;14.37;;;3.80;99.90;;;4.47;89.79;98535.13;5240972;28;20200;-61
2023/04/10 00:36:19;;;;;;;15.93;14.23;;;3.70;99.90;;;4.47;90.04;98540.19;5240537;28;20235;-62
2023/04/10 00:38:54;;;;;;;15.70;14.17;;;3.70;99.90;;;4.52;89.73;98533.00;5236782;28;20304;-62
2023/04/10 00:41:28;;;;;;;16.03;14.43;;;3.70;99.90;;;4.50;89.44;98535.41;5237960;28;20287;-62
2023/04/10 00:44:01;;;;;;;15.53;13.93;;;3.70;99.90;;;4.51;89.43;98537.16;5237902;28;20877;-61
2023/04/10 00:46:36;;;;;;;14.67;13.27;;;3.60;99.90;;;4.47;89.17;98524.13;5239582;28;20227;-62
2023/04/10 00:49:09;;;;;;;16.07;14.47;;;3.60;99.90;;;4.35;89.57;98526.41;5243340;28;20223;-63
2023/04/10 00:51:42;;;;;;;16.30;14.60;;;3.60;99.90;;;4.41;88.76;98529.50;5241093;28;20207;-62
2023/04/10 00:54:16;;;;;;;16.00;14.10;;;3.60;99.90;;;4.20;88.88;98523.34;5241820;28;20206;-60
2023/04/10 00:56:50;;;;;;;15.30;13.70;;;3.50;99.90;;;4.11;89.69;98522.50;5238692;28;20206;-64
2023/04/10 00:59:23;;;;;;;15.60;13.90;;;3.40;99.90;;;3.97;89.81;98516.16;5231995;28;20613;-62
2023/04/10 01:01:56;;;;;;;15.47;13.97;;;3.30;99.90;;;3.99;90.39;98522.25;5235661;28;20612;-61
2023/04/10 01:04:30;;;;;;;15.90;14.30;;;3.20;99.90;;;3.97;90.26;98517.81;5240683;28;20206;-62
2023/04/10 01:07:11;;;;;;;15.03;13.53;;;3.20;99.90;;;3.97;90.23;98522.88;5233078;28;20432;-62
2023/04/10 01:09:53;;;;;;;15.13;13.63;;;3.20;99.90;;;3.96;90.71;98521.97;5240303;28;20206;-62
2023/04/10 01:12:44;;;;;;;15.97;14.43;;;3.20;99.90;;;3.92;90.08;98524.97;5238508;28;20701;-61
2023/04/10 01:15:21;;;;;;;17.40;13.80;;;3.20;99.90;;;3.90;90.17;98521.41;5240509;28;20282;-62
2023/04/10 01:18:02;;;;;;;15.83;14.23;;;3.20;99.90;;;3.81;91.53;98523.09;5241029;28;20201;-63
2023/04/10 01:20:38;;;;;;;16.47;14.87;;;3.20;99.90;;;3.86;91.24;98521.84;5240426;28;20214;-63
2023/04/10 01:23:55;;;;;;;16.67;14.97;;;3.20;99.90;;;3.86;91.22;98529.44;5240447;28;20425;-62
2023/04/10 01:26:49;;;;;;;15.70;14.10;;;3.20;99.90;;;3.97;91.32;98523.75;5229891;28;20748;-63
2023/04/10 01:29:28;;;;;;;15.10;13.60;;;3.30;99.90;;;3.97;90.77;98528.81;5240899;28;20230;-62
2023/04/10 01:32:03;;;;;;;14.47;13.07;;;3.20;99.90;;;3.96;90.39;98531.22;5239340;28;20856;-63
2023/04/10 01:34:41;;;;;;;15.33;13.93;;;3.20;99.90;;;3.90;90.83;98531.53;5241141;28;20224;-63
2023/04/10 01:37:20;;;;;;;13.70;12.30;;;3.10;99.90;;;3.86;90.17;98526.91;5236256;28;20962;-62
2023/04/10 01:40:01;;;;;;;14.83;13.33;;;3.10;99.90;;;3.82;90.74;98533.31;5242020;28;20302;-63
2023/04/10 01:42:44;;;;;;;14.90;13.33;;;3.00;99.90;;;3.73;90.70;98524.00;5241450;28;20200;-62
2023/04/10 01:45:23;;;;;;;14.90;13.50;;;2.90;99.90;;;3.81;90.65;98528.16;5237362;28;20220;-63
2023/04/10 01:47:56;;;;;;;14.90;13.47;;;2.90;99.90;;;3.77;90.07;98536.16;5239904;28;20597;-62
2023/04/10 01:50:31;;;;;;;15.23;13.70;;;2.90;99.90;;;3.70;90.21;98538.88;5239934;28;20233;-62
2023/04/10 01:53:07;;;;;;;16.00;14.40;;;2.80;99.90;;;3.68;90.80;98542.91;5239576;28;20350;-62
2023/04/10 01:55:40;;;;;;;14.60;13.10;;;2.80;99.90;;;3.50;91.00;98535.34;5236990;28;20311;-62
2023/04/10 01:58:14;;;;;;;15.70;14.20;;;2.70;99.90;;;3.52;91.50;98536.41;5234352;28;20692;-62
2023/04/10 02:00:49;;;;;;;16.30;14.70;;;2.80;99.90;;;3.47;91.51;98545.16;5237632;28;20212;-62
2023/04/10 02:03:22;;;;;;;17.07;15.30;;;2.70;99.90;;;3.49;91.64;98551.28;5240333;28;20207;-64
2023/04/10 02:06:10;;;;;;;16.00;14.33;;;2.80;99.90;;;3.47;92.16;98540.13;5238078;28;20267;-63
2023/04/10 02:08:53;;;;;;;16.17;14.40;;;2.80;99.90;;;3.47;92.23;98537.59;5241146;28;20239;-61
2023/04/10 02:11:35;;;;;;;14.63;13.23;;;2.80;99.90;;;3.44;92.70;98539.84;5240845;28;20211;-63
2023/04/10 02:14:12;;;;;;;15.33;13.73;;;2.70;99.90;;;3.49;92.87;98538.63;5233549;28;20204;-63
2023/04/10 02:16:47;;;;;;;15.23;13.53;;;2.70;99.90;;;3.52;91.85;98531.34;5238628;28;20212;-64
2023/04/10 02:19:22;;;;;;;13.93;12.33;;;2.80;99.90;;;3.56;92.25;98543.50;5241993;28;20569;-63
2023/04/10 02:21:56;;;;;;;14.77;12.53;;;2.80;99.90;;;3.58;91.35;98534.44;5238788;28;20242;-64
2023/04/10 02:24:30;;;;;;;14.03;12.63;;;2.70;99.90;;;3.50;92.03;98535.34;5237231;28;20196;-62
2023/04/10 02:27:03;;;;;;;13.87;12.47;;;2.60;99.90;;;3.42;92.26;98530.31;5239756;28;20291;-64
2023/04/10 02:29:36;;;;;;;12.93;11.73;;;2.50;99.90;;;3.24;91.72;98522.78;5237643;28;20254;-64
2023/04/10 02:32:10;;;;;;;14.30;12.80;;;2.50;99.90;;;3.10;92.16;98529.00;5239540;28;20531;-63
2023/04/10 02:34:43;;;;;;;13.80;12.47;;;2.40;99.90;;;3.13;92.08;98519.22;5241676;28;20724;-62
2023/04/10 02:37:16;;;;;;;14.33;12.93;;;2.40;99.90;;;3.08;92.49;98519.50;5238760;28;20299;-62
2023/04/10 02:39:50;;;;;;;15.27;13.60;;;2.40;99.90;;;2.90;94.20;98518.63;5240797;28;20203;-63
2023/04/10 02:42:23;;;;;;;14.67;13.03;;;2.30;99.90;;;2.83;95.15;98528.84;5238780;28;20207;-63
2023/04/10 02:44:56;;;;;;;14.77;13.07;;;2.20;99.90;;;2.77;95.40;98513.13;5237325;28;20227;-63
2023/04/10 02:47:30;;;;;;;15.57;13.93;;;2.20;99.90;;;2.77;96.29;98516.53;5239797;28;20256;-62
2023/04/10 02:50:04;;;;;;;15.43;13.83;;;2.20;99.90;;;2.81;95.87;98512.69;5240465;28;20745;-62
2023/04/10 02:52:37;;;;;;;14.37;12.60;;;2.20;99.90;;;2.85;95.99;98517.28;5235934;28;20210;-63
2023/04/10 02:55:11;;;;;;;15.27;13.67;;;2.30;99.90;;;2.88;95.86;98517.56;5237913;28;20213;-64
2023/04/10 02:57:44;;;;;;;14.43;12.93;;;2.30;99.90;;;2.89;96.35;98511.78;5237434;28;20207;-62
2023/04/10 03:00:18;;;;;;;15.20;13.60;;;2.30;99.90;;;2.90;95.68;98514.47;5237954;28;20208;-63
2023/04/10 03:02:53;;;;;;;14.70;13.20;;;2.30;99.90;;;3.03;95.64;98506.44;5239054;28;20250;-63
2023/04/10 03:05:27;;;;;;;14.90;13.30;;;2.40;99.90;;;3.11;95.31;98505.53;5241346;28;20216;-62
2023/04/10 03:08:00;;;;;;;15.53;13.93;;;2.50;99.90;;;3.23;95.33;98497.34;5238946;28;20276;-62
2023/04/10 03:10:33;;;;;;;14.90;13.33;;;2.50;99.90;;;3.17;95.11;98496.00;5240518;28;20201;-64
2023/04/10 03:13:07;;;;;;;16.63;14.90;;;2.50;99.90;;;3.12;95.42;98491.28;5238390;28;20203;-63
2023/04/10 03:15:40;;;;;;;16.40;14.67;;;2.50;99.90;;;3.11;95.53;98490.38;5238961;28;20595;-63
2023/04/10 03:18:14;;;;;;;16.50;14.80;;;2.50;99.90;;;3.03;95.79;98500.50;5240733;28;20201;-64
2023/04/10 03:20:48;;;;;;;17.17;14.87;;;2.50;99.90;;;3.07;95.38;98498.41;5241020;28;20207;-63
2023/04/10 03:23:21;;;;;;;15.73;14.13;;;2.40;99.90;;;3.11;95.24;98504.66;5238422;28;20205;-62
2023/04/10 03:25:55;;;;;;;15.73;13.43;;;2.50;99.90;;;3.01;96.72;98502.88;5243578;28;20590;-63
2023/04/10 03:28:28;;;;;;;15.07;13.40;;;2.50;99.90;;;3.12;95.96;98496.34;5242275;28;20226;-62
2023/04/10 03:31:02;;;;;;;15.40;13.80;;;2.50;99.90;;;3.21;94.89;98497.22;5241865;28;20196;-62
2023/04/10 03:33:36;;;;;;;15.53;13.83;;;2.60;99.90;;;3.29;95.24;98497.94;5240563;28;20203;-63
2023/04/10 03:36:10;;;;;;;16.77;13.13;;;2.60;99.90;;;3.28;95.34;98504.63;5242945;28;20271;-63
2023/04/10 03:38:43;;;;;;;13.97;12.57;;;2.60;99.90;;;3.35;94.73;98503.59;5242654;28;20276;-63
2023/04/10 03:41:16;;;;;;;14.60;13.10;;;2.50;99.90;;;3.33;93.31;98507.59;5243624;28;20209;-63
2023/04/10 03:43:49;;;;;;;15.40;13.60;;;2.50;99.90;;;3.33;93.77;98512.66;5239565;28;20357;-63
2023/04/10 03:46:22;;;;;;;13.37;12.17;;;2.50;99.90;;;3.33;92.89;98505.97;5242634;28;20227;-64
2023/04/10 03:48:57;;;;;;;14.63;13.20;;;2.40;99.90;;;3.26;93.11;98507.75;5243783;28;20224;-63
2023/04/10 03:51:30;;;;;;;14.27;12.73;;;2.30;99.90;;;3.15;93.16;98501.69;5241924;28;20199;-63
2023/04/10 03:54:03;;;;;;;13.97;12.57;;;2.20;99.90;;;3.06;93.09;98506.75;5242102;28;20218;-62
2023/04/10 03:56:36;;;;;;;13.50;12.17;;;2.20;99.90;;;3.01;93.24;98509.56;5240189;28;20694;-63
2023/04/10 03:59:09;;;;;;;14.30;12.80;;;2.20;99.90;;;2.93;93.47;98499.63;5241168;28;20567;-62
2023/04/10 04:01:42;;;;;;;15.27;13.67;;;2.10;99.90;;;2.89;94.22;98506.72;5242645;28;20219;-63
2023/04/10 04:04:16;;;;;;;14.00;12.47;;;2.10;99.90;;;2.84;94.24;98507.94;5242615;28;20200;-62
2023/04/10 04:06:50;;;;;;;14.13;12.73;;;2.00;99.90;;;2.86;94.17;98504.81;5240959;28;20212;-62
2023/04/10 04:09:23;;;;;;;14.13;12.63;;;2.00;99.90;;;2.83;94.69;98506.13;5240506;28;20237;-63
2023/04/10 04:11:56;;;;;;;14.00;12.67;;;2.00;99.90;;;2.74;94.86;98502.72;5243349;28;20208;-62
2023/04/10 04:14:29;;;;;;;14.03;12.40;;;2.00;99.90;;;2.73;94.67;98506.88;5242077;28;20666;-63
2023/04/10 04:17:02;;;;;;;14.47;13.07;;;1.90;99.90;;;2.75;94.14;98509.53;5241485;28;20209;-63
2023/04/10 04:19:36;;;;;;;13.80;12.50;;;1.90;99.90;;;2.69;94.24;98508.22;5241835;28;20375;-64
2023/04/10 04:22:09;;;;;;;14.37;12.87;;;1.90;99.90;;;2.68;94.43;98511.47;5242049;28;20198;-62
2023/04/10 04:24:42;;;;;;;13.97;12.57;;;1.90;99.90;;;2.64;95.14;98514.47;5239814;28;20314;-62
2023/04/10 04:27:15;;;;;;;12.97;11.67;;;1.90;99.90;;;2.66;94.69;98512.06;5236604;28;20210;-62
2023/04/10 04:29:48;;;;;;;13.80;12.40;;;1.90;99.90;;;2.63;95.17;98497.53;5237911;28;20234;-63
2023/04/10 04:32:21;;;;;;;14.27;12.77;;;1.90;99.90;;;2.64;95.23;98506.88;5240053;28;20212;-62
2023/04/10 04:34:56;;;;;;;12.00;10.80;;;1.90;99.90;;;2.67;93.89;98511.34;5240679;28;20247;-62
2023/04/10 04:37:29;;;;;;;11.47;10.37;;;1.80;99.90;;;2.68;93.70;98508.06;5234004;28;20665;-63
2023/04/10 04:40:02;;;;;;;12.20;10.90;;;1.80;99.90;;;2.45;92.78;98515.91;5240613;28;20531;-62
2023/04/10 04:42:36;;;;;;;13.33;11.93;;;1.60;99.90;;;2.40;93.71;98509.50;5238828;28;20204;-63
2023/04/10 04:45:10;;;;;;;11.97;10.93;;;1.60;99.90;;;2.43;94.15;98512.34;5238069;28;20649;-63
2023/04/10 04:47:43;;;;;;;13.20;11.80;;;1.70;99.90;;;2.48;94.91;98512.03;5240270;28;20662;-62
2023/04/10 04:50:17;;;;;;;13.70;12.27;;;1.70;99.90;;;2.54;95.41;98506.72;5238300;28;20267;-62
2023/04/10 04:52:50;;;;;;;14.27;12.73;;;1.80;99.90;;;2.60;95.58;98507.31;5236976;28;20288;-63
2023/04/10 04:55:23;;;;;;;12.97;11.67;;;1.80;99.90;;;2.65;94.99;98500.19;5240327;28;20253;-63
2023/04/10 04:57:56;;;;;;;13.03;11.73;;;1.80;99.90;;;2.70;95.35;98494.84;5232151;28;20200;-65
2023/04/10 05:00:29;;;;;;;15.50;13.23;;;1.90;99.90;;;2.66;95.22;98497.84;5235821;28;20205;-63
2023/04/10 05:03:02;;;;;;;13.77;12.37;;;1.90;99.90;;;2.77;94.52;98497.97;5240450;28;20285;-64
2023/04/10 05:05:37;;;;;;;12.13;11.00;;;1.90;99.90;;;2.74;94.54;98500.19;5239607;28;20222;-62
2023/04/10 05:08:10;;;;;;;13.13;11.80;;;1.90;99.90;;;2.78;94.76;98498.13;5231190;28;20196;-62
2023/04/10 05:10:43;;;;;;;12.73;11.37;;;1.90;99.90;;;2.86;94.68;98493.81;5241372;28;20235;-62
2023/04/10 05:13:16;;;;;;;13.07;11.87;;;2.00;99.90;;;2.99;94.50;98484.16;5236826;28;20208;-62
2023/04/10 05:15:50;;;;;;;12.73;11.50;;;2.10;99.90;;;2.97;93.87;98485.63;5234417;28;20223;-63
2023/04/10 05:18:23;;;;;;;12.37;11.03;;;2.10;99.90;;;3.03;94.05;98488.75;5236760;28;20220;-63
2023/04/10 05:20:57;;;;;;;13.40;12.00;;;2.20;99.90;;;3.17;95.17;98488.44;5238760;28;20203;-63
2023/04/10 05:23:30;;;;;;;13.53;12.17;;;2.40;99.90;;;3.30;94.83;98489.63;5237342;28;20209;-64
2023/04/10 05:26:04;;;;;;;14.57;13.07;;;2.50;99.90;;;3.55;95.11;98486.16;5235470;28;20229;-62
2023/04/10 05:28:37;;;;;;;16.57;14.43;;;2.80;99.90;;;3.75;94.66;98489.63;5235919;28;20200;-63
2023/04/10 05:31:10;;;;;;;15.00;13.37;;;3.00;99.90;;;3.95;93.83;98488.94;5237478;28;20695;-63
2023/04/10 05:33:44;;;;;;;14.30;12.80;;;3.10;99.90;;;4.13;93.89;98479.66;5235723;28;20278;-63
2023/04/10 05:36:18;;;;;;;14.10;12.60;;;3.30;99.90;;;4.32;92.92;98492.31;5241086;28;20216;-63
2023/04/10 05:38:51;;;;;;;13.00;11.70;;;3.50;99.90;;;4.56;91.61;98483.56;5237970;28;20232;-63
2023/04/10 05:41:25;;;;;;;14.00;12.60;;;3.70;99.90;;;4.73;91.14;98483.44;5236592;28;20197;-64
2023/04/10 05:43:57;;;;;;;14.10;12.67;;;3.90;99.90;;;5.11;91.17;98483.41;5236399;28;20597;-63
2023/04/10 05:46:30;;;;;;;14.90;13.40;;;4.20;99.90;;;5.52;89.29;98479.41;5237497;28;20223;-62
2023/04/10 05:49:03;;;;;;;13.43;12.03;;;4.50;99.90;;;6.04;87.21;98478.81;5238968;28;20295;-64
2023/04/10 05:51:38;;;;;;;13.13;11.83;;;4.90;99.90;;;6.33;84.69;98477.81;5239416;28;20606;-63
2023/04/10 05:54:11;;;;;;;12.43;11.23;;;5.20;99.90;;;6.63;83.17;98479.47;5233873;28;20204;-64
2023/04/10 05:56:44;;;;;;;11.00;10.00;;;5.30;99.90;;;6.82;82.30;98473.34;5232589;28;20204;-63
2023/04/10 05:59:17;;;;;;;10.73;9.73;;;5.40;99.90;;;7.00;80.50;98485.00;5238482;28;20204;-63
2023/04/10 06:01:50;;;;;;;12.10;10.90;;;5.50;99.90;;;7.02;80.51;98491.09;5235574;28;20299;-64
2023/04/10 06:04:23;;;;;;;11.17;10.07;;;5.70;99.90;;;7.23;79.59;98475.00;5238312;28;20288;-62
2023/04/10 06:06:58;;;;;;;11.73;10.63;;;5.70;99.90;;;7.52;77.11;98484.06;5238442;28;20208;-63
2023/04/10 06:09:31;;;;;;;12.63;11.43;;;5.90;99.90;;;7.83;76.14;98483.94;5236870;28;20206;-63
2023/04/10 06:12:04;;;;;;;12.33;11.03;;;6.00;99.90;;;8.02;74.55;98471.84;5237521;28;20193;-64
2023/04/10 06:14:37;;;;;;;11.93;10.83;;;6.20;99.90;;;8.32;74.01;98474.94;5232103;28;20760;-63
2023/04/10 06:17:10;;;;;;;11.43;10.33;;;6.40;99.90;;;8.47;72.59;98468.50;5235511;28;20197;-64
2023/04/10 06:19:43;;;;;;;11.57;10.40;;;6.50;99.90;;;8.73;72.10;98464.47;5237536;28;20222;-64
2023/04/10 06:22:17;;;;;;;11.60;10.60;;;6.70;99.90;;;8.91;71.15;98468.34;5237840;28;20203;-65
2023/04/10 06:24:51;;;;;;;11.90;10.80;;;6.80;99.90;;;9.17;69.65;98470.25;5236269;28;20322;-64
2023/04/10 06:27:24;;;;;;;12.47;11.27;;;7.10;99.90;;;9.46;68.95;98474.88;5235198;28;20208;-63
2023/04/10 06:29:57;;;;;;;11.90;10.80;;;7.40;99.90;;;9.66;67.39;98475.41;5232685;28;20709;-63
2023/04/10 06:32:30;;;;;;;12.30;11.20;;;7.50;99.90;;;10.28;65.89;98467.81;5234573;28;20719;-64
2023/04/10 06:35:04;;;;;;;11.93;10.77;;;7.90;99.90;;;10.49;65.30;98469.25;5241505;28;20235;-63
2023/04/10 06:37:38;;;;;;;12.40;11.30;;;8.10;99.90;;;10.79;62.78;98472.97;5239815;28;20223;-63
2023/04/10 06:40:14;;;;;;;11.40;10.38;;;8.50;99.90;;;10.80;64.54;98469.59;5234725;28;20578;-64
2023/04/10 06:42:47;;;;;;;11.35;10.32;;;8.60;99.90;;;10.99;61.85;98460.59;5235481;28;20695;-64
2023/04/10 06:45:20;;;;;;;12.23;11.13;;;8.80;99.90;;;11.23;62.97;98457.03;5230351;28;20255;-64
2023/04/10 06:47:53;;;;;;;12.00;10.98;;;9.20;99.90;;;11.54;62.62;98459.00;5235452;28;20689;-63
2023/04/10 06:50:26;;;;;;;11.50;10.50;;;9.60;99.90;;;11.85;61.08;98451.59;5236678;28;20224;-64
2023/04/10 06:53:01;;;;;;;13.35;12.07;;;10.00;99.90;;;12.13;59.72;98453.25;5237879;28;20569;-63
2023/04/10 06:55:34;;;;;;;12.25;11.23;;;10.30;99.90;;;12.46;58.03;98449.25;5233269;28;20220;-62
2023/04/10 06:58:07;;;;;;;10.73;9.73;;;10.70;99.90;;;12.79;55.66;98446.88;5238251;28;20211;-64
2023/04/10 07:00:41;;;;;;;11.00;10.00;;;11.10;99.90;;;12.86;54.19;98446.44;5235981;28;20551;-64
2023/04/10 07:03:14;;;;;;;10.40;9.50;;;11.30;99.90;;;12.98;53.33;98444.56;5240344;28;20301;-63
2023/04/10 07:05:47;;;;;;;10.32;9.52;;;11.50;99.90;;;12.88;52.78;98439.75;5240852;28;20217;-64
2023/04/10 07:08:21;;;;;;;10.02;9.13;;;11.60;99.00;;;13.37;51.44;98442.53;5243138;28;20573;-63
2023/04/10 07:10:54;;;;;;;8.70;8.00;;;11.80;98.50;;;13.94;49.07;98432.75;5236759;28;20318;-63
2023/04/10 07:13:30;;;;;;;8.55;7.85;;;12.20;96.80;;;14.28;46.07;98434.50;5237976;28;20232;-63
2023/04/10 07:16:03;;;;;;;9.23;8.43;;;13.00;94.00;;;14.14;45.20;98436.38;5244472;28;20228;-64
2023/04/10 07:18:37;;;;;;;8.80;8.05;;;12.90;93.20;;;14.08;44.62;98436.03;5242089;28;20307;-64
2023/04/10 07:21:12;;;;;;;8.38;7.68;;;13.00;92.30;;;14.19;44.27;98430.69;5241894;28;20227;-63
2023/04/10 07:23:46;;;;;;;8.70;8.00;;;13.00;92.00;;;14.48;44.35;98433.88;5234522;28;20652;-63
2023/04/10 07:26:19;;;;;;;8.93;8.15;;;13.10;91.90;;;14.59;43.14;98426.69;5236244;28;20220;-64
2023/04/10 07:28:52;;;;;;;9.27;8.45;;;13.20;91.30;;;14.69;44.17;98438.34;5238131;28;20201;-64
2023/04/10 07:31:25;;;;;;;9.20;8.43;;;13.40;91.70;;;14.73;43.65;98430.84;5243993;28;20320;-64
2023/04/10 07:33:58;;;;;;;9.68;8.88;;;13.50;91.10;;;14.75;42.02;98441.22;5238061;28;20200;-62
2023/04/10 07:36:31;;;;;;;8.70;8.00;;;13.70;90.40;;;14.43;42.24;98445.59;5239885;28;20229;-64
2023/04/10 07:39:06;;;;;;;8.98;8.18;;;13.80;89.80;;;14.31;43.43;98440.72;5241289;28;20207;-63
2023/04/10 07:41:39;;;;;;;9.48;8.68;;;13.70;90.10;;;14.32;43.71;98447.63;5242302;28;20664;-64
2023/04/10 07:44:13;;;;;;;9.27;8.48;;;13.80;90.00;;;14.25;43.37;98450.69;5244342;28;20204;-64
2023/04/10 07:46:46;;;;;;;9.45;8.65;;;13.70;90.00;;;14.18;43.52;98446.88;5245124;28;20561;-64
2023/04/10 07:49:19;;;;;;;8.77;8.07;;;13.90;88.60;;;14.10;43.91;98447.28;5238110;28;20227;-63
2023/04/10 07:51:52;;;;;;;9.20;8.40;;;13.80;88.70;;;14.02;44.10;98453.72;5241474;28;20236;-63
2023/04/10 07:54:26;;;;;;;8.85;8.15;;;13.80;88.40;;;14.00;44.04;98450.19;5243515;28;20284;-64
2023/04/10 07:56:59;;;;;;;9.68;8.88;;;13.60;89.50;;;14.21;42.37;98448.75;5242024;28;20215;-62
2023/04/10 07:59:32;;;;;;;8.93;8.23;;;13.90;88.10;;;14.19;43.05;98450.34;5242026;28;20204;-64
2023/04/10 08:02:05;;;;;;;10.02;9.13;;;13.70;88.10;;;13.83;43.44;98450.16;5239619;28;20195;-64
2023/04/10 08:04:38;;;;;;;8.70;8.00;;;13.60;87.50;;;13.74;44.44;98440.28;5242969;28;20229;-64
2023/04/10 08:07:11;;;;;;;8.70;8.00;;;13.30;89.00;;;13.70;44.68;98447.72;5241811;28;20200;-64
2023/04/10 08:09:45;;;;;;;9.00;8.20;;;13.20;88.90;;;13.67;43.93;98442.44;5242490;28;20288;-63
2023/04/10 08:12:18;;;;;;;9.25;8.52;;;13.40;88.20;;;13.74;43.91;98452.25;5245914;28;20220;-64
2023/04/10 08:14:51;;;;;;;9.32;8.63;;;13.40;88.30;;;13.86;43.36;98445.19;5244138;28;20231;-64
2023/04/10 08:17:24;;;;;;;8.88;8.18;;;13.50;88.20;;;14.08;43.83;98454.03;5245719;28;20196;-63
2023/04/10 08:19:57;;;;;;;8.13;7.43;;;13.70;87.40;;;14.00;42.64;98439.91;5238552;28;20257;-64
2023/04/10 08:22:30;;;;;;;8.18;7.47;;;13.70;87.40;;;13.92;42.75;98440.38;5241071;28;20431;-63
2023/04/10 08:25:06;;;;;;;8.10;7.45;;;13.50;86.90;;;13.88;43.78;98438.47;5231629;28;20216;-61
2023/04/10 08:27:39;;;;;;;8.15;7.40;;;13.40;88.20;;;14.21;43.29;98443.59;5237247;28;20705;-62
2023/04/10 08:30:12;;;;;;;7.30;6.70;;;13.70;87.10;;;14.18;42.78;98440.88;5240335;28;20196;-64
2023/04/10 08:32:45;;;;;;;8.55;7.85;;;13.80;86.90;;;14.24;42.08;98441.19;5233969;28;20231;-63
2023/04/10 08:35:19;;;;;;;7.95;7.25;;;13.80;85.60;;;14.34;41.91;98451.16;5235948;28;20475;-63
2023/04/10 08:37:52;;;;;;;8.32;7.63;;;13.90;86.10;;;13.91;42.56;98433.47;5238767;28;20671;-64
2023/04/10 08:40:46;;;;;;;8.20;7.60;;;13.50;85.90;;;14.13;41.74;98442.31;5239783;28;20575;-64
2023/04/10 08:43:19;;;;;;;7.70;7.10;;;13.60;86.60;;;14.11;42.62;98437.09;5237687;28;20196;-64
2023/04/10 08:45:53;;;;;;;8.05;7.35;;;13.80;85.30;;;14.29;42.11;98442.31;5242268;28;20251;-63
2023/04/10 08:48:34;;;;;;;7.75;7.15;;;13.80;85.60;;;14.29;41.68;98434.59;5242961;28;20200;-62
2023/04/10 08:51:14;;;;;;;8.13;7.43;;;13.80;85.20;;;14.36;42.14;98431.53;5243388;28;20668;-63
2023/04/10 08:53:55;;;;;;;7.20;6.60;;;13.80;86.10;;;14.52;41.34;98425.53;5241109;28;20197;-64
2023/04/10 08:56:31;;;;;;;7.20;6.70;;;14.10;85.90;;;14.86;42.70;98425.50;5242333;28;20229;-64
2023/04/10 08:59:05;;;;;;;6.95;6.45;;;14.40;86.70;;;15.17;40.35;98429.59;5240545;28;20210;-64
2023/04/10 09:01:40;;;;;;;7.65;7.05;;;14.80;83.30;;;15.02;39.50;98424.59;5240580;28;20204;-62
2023/04/10 09:04:13;;;;;;;7.53;6.93;;;14.60;82.40;;;15.05;39.19;98428.97;5236659;28;20569;-63
2023/04/10 09:06:47;;;;;;;7.30;6.70;;;14.70;82.10;;;14.81;40.06;98421.81;5249131;28;20212;-64
2023/04/10 09:09:20;;;;;;;7.22;6.50;;;14.30;82.80;;;14.90;39.98;98438.53;5234297;28;20234;-64
2023/04/10 09:12:02;;;;;;;7.00;6.50;;;14.50;82.40;;;14.68;40.39;98432.34;5243979;28;20789;-63
2023/04/10 09:14:37;;;;;;;7.53;6.90;;;14.20;82.50;;;14.81;40.40;98414.09;5240436;28;20221;-64
2023/04/10 09:17:14;;;;;;;7.38;6.78;;;14.30;83.50;;;14.99;40.24;98420.97;5241661;28;20196;-64
2023/04/10 09:19:51;;;;;;;7.40;6.80;;;14.60;83.10;;;15.18;39.88;98415.00;5236988;28;20253;-64
2023/04/10 09:22:31;;;;;;;7.35;6.75;;;14.70;82.80;;;15.17;38.88;98414.13;5237901;28;20239;-64
2023/04/10 09:25:06;;;;;;;7.03;6.43;;;15.00;80.70;;;14.93;40.85;98402.66;5240711;28;20256;-63
2023/04/10 09:27:41;;;;;;;7.22;6.63;;;14.70;82.50;;;15.23;40.45;98404.13;5240985;28;20199;-64
2023/04/10 09:30:34;;;;;;;7.10;6.50;;;14.90;83.00;;;14.86;40.90;98404.91;5247789;28;20463;-64
2023/04/10 09:33:26;;;;;;;6.85;6.25;;;14.50;82.50;;;15.36;39.01;98391.81;5240591;28;20259;-64
2023/04/10 09:35:59;;;;;;;6.20;5.70;;;14.90;81.50;;;15.66;38.63;98387.22;5243404;28;20702;-64
2023/04/10 09:38:34;;;;;;;6.63;6.05;;;15.20;80.60;;;15.39;38.90;98397.09;5240673;28;20493;-64
2023/04/10 09:41:08;;;;;;;6.72;6.22;;;15.00;80.40;;;15.16;39.58;98388.31;5241588;28;20199;-64
2023/04/10 09:43:44;;;;;;;6.60;6.10;;;14.60;81.70;;;14.91;39.84;98375.94;5241992;28;20200;-63
2023/04/10 09:46:27;;;;;;;7.22;6.63;;;14.50;81.20;;;14.97;39.19;98376.25;5241841;28;20238;-64
2023/04/10 09:49:04;;;;;;;6.75;6.25;;;14.60;81.00;;;15.00;39.44;98390.16;5241899;28;20246;-64
2023/04/10 09:51:38;;;;;;;6.85;6.25;;;14.70;80.70;;;14.75;39.43;98377.78;5236230;28;20192;-63
2023/04/10 09:54:11;;;;;;;6.28;5.78;;;14.40;80.40;;;15.10;38.96;98373.44;5237195;28;20192;-64
2023/04/10 09:56:46;;;;;;;6.47;5.97;;;14.60;80.70;;;15.23;40.13;98362.03;5239185;28;20208;-62
2023/04/10 09:59:21;;;;;;;6.90;6.40;;;14.80;82.10;;;15.55;39.23;98360.94;5237548;28;20196;-64
2023/04/10 10:01:54;;;;;;;6.05;5.63;;;15.10;80.70;;;15.59;37.79;98352.53;5238113;28;20219;-64
2023/04/10 10:04:28;;;;;;;6.05;5.55;;;15.30;78.40;;;15.67;38.55;98353.75;5234933;28;20201;-61
2023/04/10 10:07:01;;;;;;;6.07;5.57;;;15.50;79.50;;;15.95;38.72;98352.44;5237945;28;20259;-63
2023/04/10 10:09:37;;;;;;;6.45;5.95;;;15.60;80.00;;;16.13;38.87;98340.34;5242003;28;20611;-64
2023/04/10 10:12:12;;;;;;;6.40;5.90;;;15.90;79.80;;;16.29;38.34;98338.44;5236636;28;20575;-63
2023/04/10 10:14:55;;;;;;;6.70;6.10;;;16.00;79.80;;;16.36;37.96;98332.69;5237969;28;20771;-64
2023/04/10 10:17:35;;;;;;;6.10;5.65;;;16.10;78.40;;;16.50;36.93;98320.38;5238537;28;20223;-63
2023/04/10 10:20:10;;;;;;;5.85;5.40;;;16.20;77.90;;;16.57;36.12;98318.13;5239173;28;20208;-64
2023/04/10 10:22:44;;;;;;;5.40;5.00;;;16.20;76.10;;;16.54;36.96;98312.84;5239548;28;20200;-63
2023/04/10 10:25:19;;;;;;;5.43;4.97;;;16.20;76.90;;;16.78;34.63;98315.53;5234503;28;20270;-64
2023/04/10 10:27:53;;;;;;;5.93;5.53;;;16.40;74.40;;;16.77;35.04;98315.47;5239968;28;20279;-63
2023/04/10 10:30:28;;;;;;;5.20;4.80;;;16.50;73.90;;;16.74;34.95;98313.63;5235630;28;20516;-64
2023/04/10 10:33:06;;;;;;;5.45;5.05;;;16.50;73.50;;;16.72;34.79;98314.41;5232665;28;20262;-64
2023/04/10 10:35:40;;;;;;;5.53;5.13;;;16.50;73.50;;;16.55;35.47;98301.69;5235395;28;20306;-64
2023/04/10 10:38:14;;;;;;;6.72;6.13;;;16.30;74.50;;;16.34;35.67;98300.78;5241157;28;20655;-64
2023/04/10 10:40:54;;;;;;;6.30;5.70;;;16.30;73.90;;;16.17;36.32;98292.38;5238881;28;20679;-64
2023/04/10 10:43:37;;;;;;;6.32;5.82;;;16.00;75.10;;;16.23;35.74;98289.16;5234609;28;20200;-64
2023/04/10 10:46:17;;;;;;;6.40;5.90;;;16.10;74.60;;;16.34;36.34;98277.56;5236183;28;20216;-63
2023/04/10 10:48:57;;;;;;;5.80;5.30;;;16.10;75.30;;;16.40;36.26;98277.84;5235857;28;20204;-62